Time;durP1;ratioP1;P1;durP2;ratioP2;P2;SDS_P1;SDS_P2;PMS_P1;PMS_P2;Temp;Humidity;BMP_temperature;BMP_pressure;BME280_temperature;BME280_humidity;BME280_pressure;Samples;Min_cycle;Max_cycle;Signal;HPM_P1;HPM_P2
2022/06/29 00:00:13;;;;;;;6.47;2.50;;;;;;;;;;6141364;23;20025;-45
2022/06/29 00:02:40;;;;;;;7.18;2.22;;;;;;;;;;6143467;23;20018;-48
2022/06/29 00:05:07;;;;;;;6.45;2.50;;;;;;;;;;6134532;23;20016;-48
2022/06/29 00:07:35;;;;;;;6.72;2.63;;;;;;;;;;6142879;23;20072;-46
2022/06/29 00:10:01;;;;;;;8.82;2.88;;;;;;;;;;6145127;23;20010;-47
2022/06/29 00:12:28;;;;;;;9.90;2.40;;;;;;;;;;6138333;23;20052;-46
2022/06/29 00:14:56;;;;;;;12.70;2.53;;;;;;;;;;6147209;23;20386;-50
2022/06/29 00:17:23;;;;;;;3.47;2.40;;;;;;;;;;6138930;23;20017;-46
2022/06/29 00:19:50;;;;;;;9.20;2.70;;;;;;;;;;6147880;23;20026;-45
2022/06/29 00:22:16;;;;;;;12.23;2.53;;;;;;;;;;6140252;23;20021;-47
2022/06/29 00:24:43;;;;;;;8.27;2.45;;;;;;;;;;6140730;23;20169;-46
2022/06/29 00:27:09;;;;;;;9.93;2.67;;;;;;;;;;6117971;23;20077;-47
2022/06/29 00:29:37;;;;;;;14.20;3.15;;;;;;;;;;6142378;23;20017;-46
2022/06/29 00:32:05;;;;;;;7.22;2.70;;;;;;;;;;6145704;23;20044;-48
2022/06/29 00:34:33;;;;;;;7.95;3.15;;;;;;;;;;6142061;23;20029;-46
2022/06/29 00:37:00;;;;;;;9.60;3.47;;;;;;;;;;6145885;23;20013;-46
2022/06/29 00:39:26;;;;;;;9.93;3.53;;;;;;;;;;6144505;23;20022;-47
2022/06/29 00:41:53;;;;;;;13.15;3.33;;;;;;;;;;6140613;23;20058;-46
2022/06/29 00:44:20;;;;;;;13.20;4.13;;;;;;;;;;6148961;23;20431;-46
2022/06/29 00:46:48;;;;;;;10.30;2.88;;;;;;;;;;6110998;23;20017;-46
2022/06/29 00:49:16;;;;;;;4.60;2.47;;;;;;;;;;6118067;23;20021;-48
2022/06/29 00:51:45;;;;;;;11.65;3.45;;;;;;;;;;6160361;23;20016;-47
2022/06/29 00:54:13;;;;;;;9.90;3.30;;;;;;;;;;6177754;23;20017;-47
2022/06/29 00:56:41;;;;;;;11.20;3.08;;;;;;;;;;6167739;23;20433;-47
2022/06/29 00:59:09;;;;;;;11.48;3.42;;;;;;;;;;6177514;23;20024;-47
2022/06/29 01:01:36;;;;;;;11.25;2.83;;;;;;;;;;6170818;23;20017;-46
2022/06/29 01:04:02;;;;;;;11.95;3.20;;;;;;;;;;6173582;23;20042;-46
2022/06/29 01:06:30;;;;;;;6.60;3.22;;;;;;;;;;6172720;23;20016;-47
2022/06/29 01:08:57;;;;;;;7.10;3.35;;;;;;;;;;6156702;23;20013;-46
2022/06/29 01:11:23;;;;;;;9.70;3.42;;;;;;;;;;6169834;23;20173;-47
2022/06/29 01:13:50;;;;;;;10.57;4.20;;;;;;;;;;6169492;23;20076;-45
2022/06/29 01:16:17;;;;;;;7.32;3.88;;;;;;;;;;6175388;23;20063;-45
2022/06/29 01:18:43;;;;;;;6.90;3.38;;;;;;;;;;6164011;23;20060;-50
2022/06/29 01:21:10;;;;;;;12.02;3.58;;;;;;;;;;6170144;23;20009;-47
2022/06/29 01:23:38;;;;;;;9.60;3.45;;;;;;;;;;6170623;23;20031;-46
2022/06/29 01:26:05;;;;;;;7.97;3.25;;;;;;;;;;6169935;23;20407;-46
2022/06/29 01:28:32;;;;;;;5.63;2.72;;;;;;;;;;6175652;23;20086;-48
2022/06/29 01:30:58;;;;;;;5.20;2.90;;;;;;;;;;6166999;23;20013;-46
2022/06/29 01:33:25;;;;;;;6.65;3.90;;;;;;;;;;6169109;23;20020;-47
2022/06/29 01:35:51;;;;;;;5.93;2.25;;;;;;;;;;6172783;23;20415;-51
2022/06/29 01:38:18;;;;;;;4.32;2.83;;;;;;;;;;6171421;23;20033;-47
2022/06/29 01:40:46;;;;;;;2.10;1.40;;;;;;;;;;6177291;23;20174;-45
2022/06/29 01:43:13;;;;;;;4.78;1.48;;;;;;;;;;6174639;23;20013;-46
2022/06/29 01:45:39;;;;;;;2.97;1.40;;;;;;;;;;6169704;23;20017;-48
2022/06/29 01:48:06;;;;;;;4.95;1.45;;;;;;;;;;6142883;23;20080;-46
2022/06/29 01:50:33;;;;;;;4.15;1.27;;;;;;;;;;6169549;23;20084;-46
2022/06/29 01:52:59;;;;;;;5.18;2.15;;;;;;;;;;6170419;23;20021;-46
2022/06/29 01:55:26;;;;;;;4.90;1.33;;;;;;;;;;6176654;23;20071;-46
2022/06/29 01:57:54;;;;;;;4.68;1.35;;;;;;;;;;6167079;23;20597;-46
2022/06/29 02:00:20;;;;;;;1.40;1.00;;;;;;;;;;6177648;23;20021;-46
2022/06/29 02:02:47;;;;;;;2.05;1.20;;;;;;;;;;6165874;23;20441;-46
2022/06/29 02:05:14;;;;;;;2.35;1.42;;;;;;;;;;6170763;23;20072;-47
2022/06/29 02:07:40;;;;;;;2.28;1.10;;;;;;;;;;6163004;23;20016;-46
2022/06/29 02:10:07;;;;;;;1.15;1.05;;;;;;;;;;6177512;23;20017;-45
2022/06/29 02:12:34;;;;;;;2.67;1.10;;;;;;;;;;6171472;23;20079;-46
2022/06/29 02:15:02;;;;;;;1.85;0.93;;;;;;;;;;6172444;23;20068;-48
2022/06/29 02:17:28;;;;;;;1.60;1.10;;;;;;;;;;6175599;23;20105;-48
2022/06/29 02:19:55;;;;;;;3.53;1.17;;;;;;;;;;6155163;23;20021;-46
2022/06/29 02:22:21;;;;;;;4.70;1.27;;;;;;;;;;6178374;23;20013;-48
2022/06/29 02:24:48;;;;;;;3.15;1.00;;;;;;;;;;6167872;23;20439;-48
2022/06/29 02:27:14;;;;;;;1.80;1.15;;;;;;;;;;6172922;23;20017;-49
2022/06/29 02:29:41;;;;;;;5.30;1.92;;;;;;;;;;6172330;23;20400;-45
2022/06/29 02:34:53;;;;;;;4.00;1.48;;;;;;;;;;6168745;23;20052;-47
2022/06/29 02:37:19;;;;;;;2.05;1.25;;;;;;;;;;6170349;23;20096;-48
2022/06/29 02:39:46;;;;;;;2.88;2.00;;;;;;;;;;6179825;23;20261;-46
2022/06/29 02:42:13;;;;;;;2.65;1.67;;;;;;;;;;6167972;23;20021;-46
2022/06/29 02:44:39;;;;;;;2.05;1.35;;;;;;;;;;6161355;23;20025;-48
2022/06/29 02:47:06;;;;;;;1.75;1.13;;;;;;;;;;6175322;23;20093;-46
2022/06/29 02:49:35;;;;;;;3.65;1.48;;;;;;;;;;6172065;23;20036;-47
2022/06/29 02:52:01;;;;;;;7.03;1.85;;;;;;;;;;6167521;23;20017;-48
2022/06/29 02:54:28;;;;;;;2.08;1.17;;;;;;;;;;6171208;23;20013;-45
2022/06/29 02:56:55;;;;;;;5.03;1.95;;;;;;;;;;6163454;23;20013;-46
2022/06/29 02:59:21;;;;;;;3.42;1.50;;;;;;;;;;6175201;23;20021;-46
2022/06/29 03:01:48;;;;;;;6.55;1.92;;;;;;;;;;6174882;23;20017;-47
2022/06/29 03:04:15;;;;;;;3.50;1.88;;;;;;;;;;6167421;23;20024;-46
2022/06/29 03:06:42;;;;;;;5.85;2.58;;;;;;;;;;6176190;23;20025;-46
2022/06/29 03:09:09;;;;;;;4.68;2.13;;;;;;;;;;6168100;23;20082;-46
2022/06/29 03:11:36;;;;;;;4.45;2.10;;;;;;;;;;6172248;23;20013;-46
2022/06/29 03:14:03;;;;;;;3.92;1.70;;;;;;;;;;6173354;23;20017;-45
2022/06/29 03:16:30;;;;;;;6.93;1.85;;;;;;;;;;6171460;23;20021;-46
2022/06/29 03:18:56;;;;;;;3.35;1.80;;;;;;;;;;6169729;23;20013;-46
2022/06/29 03:21:23;;;;;;;4.68;1.90;;;;;;;;;;6147196;23;20013;-46
2022/06/29 03:23:51;;;;;;;4.47;1.98;;;;;;;;;;6155896;23;20083;-46
2022/06/29 03:26:18;;;;;;;2.97;1.90;;;;;;;;;;6172183;23;20265;-46
2022/06/29 03:28:44;;;;;;;6.63;2.08;;;;;;;;;;6175544;23;20032;-45
2022/06/29 03:31:11;;;;;;;4.05;2.05;;;;;;;;;;6169080;23;20017;-45
2022/06/29 03:33:38;;;;;;;7.22;1.92;;;;;;;;;;6167997;23;20025;-48
2022/06/29 03:36:04;;;;;;;4.13;2.10;;;;;;;;;;6173709;23;20013;-46
2022/06/29 03:38:30;;;;;;;6.07;2.10;;;;;;;;;;6172730;23;20040;-46
2022/06/29 03:40:59;;;;;;;4.63;2.47;;;;;;;;;;6173547;23;20025;-48
2022/06/29 03:43:25;;;;;;;6.03;2.42;;;;;;;;;;6168368;23;20044;-47
2022/06/29 03:45:52;;;;;;;7.20;2.53;;;;;;;;;;6168874;23;20017;-46
2022/06/29 03:48:18;;;;;;;6.43;2.38;;;;;;;;;;6173294;23;20024;-45
2022/06/29 03:50:45;;;;;;;7.57;2.78;;;;;;;;;;6172745;23;20037;-46
2022/06/29 03:53:12;;;;;;;16.85;3.17;;;;;;;;;;6172504;23;20594;-47
2022/06/29 03:55:38;;;;;;;7.30;2.78;;;;;;;;;;6174705;23;20079;-49
2022/06/29 03:58:06;;;;;;;10.95;4.25;;;;;;;;;;6173225;23;20017;-46
2022/06/29 04:00:33;;;;;;;11.10;2.90;;;;;;;;;;6173042;23;20029;-48
2022/06/29 04:03:00;;;;;;;16.27;3.33;;;;;;;;;;6170121;23;20071;-46
2022/06/29 04:05:26;;;;;;;12.07;3.60;;;;;;;;;;6179372;23;20460;-47
2022/06/29 04:07:53;;;;;;;9.63;3.05;;;;;;;;;;6173603;23;20048;-48
2022/06/29 04:10:19;;;;;;;7.07;3.10;;;;;;;;;;6163585;23;20013;-46
2022/06/29 04:12:46;;;;;;;9.52;3.28;;;;;;;;;;6172983;23;20046;-45
2022/06/29 04:15:14;;;;;;;8.00;3.35;;;;;;;;;;6170065;23;20017;-45
2022/06/29 04:17:40;;;;;;;9.77;3.47;;;;;;;;;;6174146;23;20028;-45
2022/06/29 04:20:07;;;;;;;14.23;3.85;;;;;;;;;;6174246;23;20021;-45
2022/06/29 04:22:33;;;;;;;14.98;3.33;;;;;;;;;;6168721;23;20040;-47
2022/06/29 04:25:00;;;;;;;12.65;3.67;;;;;;;;;;6176136;23;20072;-45
2022/06/29 04:27:27;;;;;;;13.80;3.83;;;;;;;;;;6171462;23;20228;-45
2022/06/29 04:29:53;;;;;;;10.63;3.97;;;;;;;;;;6171834;23;20403;-48
2022/06/29 04:32:21;;;;;;;12.38;3.13;;;;;;;;;;6178102;23;20013;-46
2022/06/29 04:34:47;;;;;;;14.40;3.78;;;;;;;;;;6163323;23;20013;-46
2022/06/29 04:37:14;;;;;;;9.45;3.33;;;;;;;;;;6176342;23;20017;-46
2022/06/29 04:39:40;;;;;;;18.13;3.83;;;;;;;;;;6170825;23;20079;-48
2022/06/29 04:42:07;;;;;;;8.55;3.15;;;;;;;;;;6179173;23;20016;-47
2022/06/29 04:44:33;;;;;;;14.82;3.33;;;;;;;;;;6171687;23;20071;-46
2022/06/29 04:47:00;;;;;;;12.45;3.95;;;;;;;;;;6178421;23;20083;-47
2022/06/29 04:49:28;;;;;;;6.63;3.38;;;;;;;;;;6168643;23;20013;-46
2022/06/29 04:51:55;;;;;;;15.52;3.97;;;;;;;;;;6175563;23;20040;-47
2022/06/29 04:54:22;;;;;;;9.18;4.07;;;;;;;;;;6177248;23;20124;-48
2022/06/29 04:56:48;;;;;;;19.17;5.60;;;;;;;;;;6138033;23;20016;-45
2022/06/29 04:59:15;;;;;;;12.65;4.07;;;;;;;;;;6173333;23;20013;-46
2022/06/29 05:01:43;;;;;;;8.65;4.00;;;;;;;;;;6168764;23;20016;-45
2022/06/29 05:04:09;;;;;;;11.93;3.25;;;;;;;;;;6172617;23;20078;-46
2022/06/29 05:06:37;;;;;;;13.65;4.65;;;;;;;;;;6169662;23;20452;-46
2022/06/29 05:09:04;;;;;;;10.50;3.95;;;;;;;;;;6174589;23;20017;-45
2022/06/29 05:11:30;;;;;;;10.55;3.90;;;;;;;;;;6170976;23;20013;-45
2022/06/29 05:13:57;;;;;;;20.02;4.90;;;;;;;;;;6177097;23;20024;-45
2022/06/29 05:16:23;;;;;;;14.00;4.15;;;;;;;;;;6166733;23;20020;-46
2022/06/29 05:18:50;;;;;;;15.45;4.35;;;;;;;;;;6175831;23;20241;-47
2022/06/29 05:21:18;;;;;;;14.40;5.25;;;;;;;;;;6170125;23;20017;-46
2022/06/29 05:23:46;;;;;;;18.42;5.10;;;;;;;;;;6176684;23;20024;-45
2022/06/29 05:26:13;;;;;;;20.25;5.30;;;;;;;;;;6164210;23;20505;-46
2022/06/29 05:28:39;;;;;;;14.85;4.25;;;;;;;;;;6176622;23;20378;-45
2022/06/29 05:31:06;;;;;;;16.67;4.63;;;;;;;;;;6175998;23;20482;-46
2022/06/29 05:33:36;;;;;;;9.55;3.90;;;;;;;;;;6169389;23;20093;-45
2022/06/29 05:36:03;;;;;;;11.18;5.75;;;;;;;;;;6169627;23;20013;-47
2022/06/29 05:38:30;;;;;;;11.65;4.07;;;;;;;;;;6174249;23;20013;-48
2022/06/29 05:41:00;;;;;;;18.25;4.93;;;;;;;;;;6167592;23;20017;-45
2022/06/29 05:43:26;;;;;;;15.05;4.43;;;;;;;;;;6171071;23;20017;-47
2022/06/29 05:45:53;;;;;;;13.90;4.15;;;;;;;;;;6167792;23;20017;-45
2022/06/29 05:48:19;;;;;;;14.57;4.70;;;;;;;;;;6146193;23;20056;-45
2022/06/29 05:50:46;;;;;;;12.40;4.63;;;;;;;;;;6142080;23;20021;-45
2022/06/29 05:53:14;;;;;;;22.88;5.35;;;;;;;;;;6168901;23;20430;-47
2022/06/29 05:55:40;;;;;;;13.90;4.72;;;;;;;;;;6175283;23;20013;-46
2022/06/29 05:58:08;;;;;;;10.70;4.65;;;;;;;;;;6170068;23;20032;-48
2022/06/29 06:00:35;;;;;;;17.58;5.13;;;;;;;;;;6174466;23;20020;-49
2022/06/29 06:03:01;;;;;;;12.10;4.45;;;;;;;;;;6169257;23;20017;-45
2022/06/29 06:05:28;;;;;;;13.55;4.95;;;;;;;;;;6173904;23;20040;-47
2022/06/29 06:07:54;;;;;;;15.63;4.80;;;;;;;;;;6165049;23;20044;-46
2022/06/29 06:10:21;;;;;;;15.23;5.13;;;;;;;;;;6176579;23;20019;-47
2022/06/29 06:12:47;;;;;;;14.32;5.57;;;;;;;;;;6164187;23;20013;-46
2022/06/29 06:15:15;;;;;;;12.50;4.97;;;;;;;;;;6175267;23;20017;-47
2022/06/29 06:17:42;;;;;;;15.65;5.20;;;;;;;;;;6175056;23;20017;-47
2022/06/29 06:20:09;;;;;;;15.90;4.80;;;;;;;;;;6171568;23;20017;-46
2022/06/29 06:22:36;;;;;;;12.77;4.85;;;;;;;;;;6173937;23;20017;-46
2022/06/29 06:25:03;;;;;;;10.75;4.63;;;;;;;;;;6168308;23;20017;-49
2022/06/29 06:27:30;;;;;;;18.73;4.95;;;;;;;;;;6172941;23;20029;-48
2022/06/29 06:29:57;;;;;;;10.88;4.60;;;;;;;;;;6168388;23;20053;-45
2022/06/29 06:32:25;;;;;;;10.88;3.90;;;;;;;;;;6179252;23;20009;-49
2022/06/29 06:34:51;;;;;;;18.08;5.22;;;;;;;;;;6168260;23;20021;-46
2022/06/29 06:37:17;;;;;;;16.48;5.50;;;;;;;;;;6180266;23;20013;-47
2022/06/29 06:41:21;;;;;;;18.33;4.85;;;;;;;;;;6162228;23;20017;-47
2022/06/29 06:42:30;;;;;;;14.13;4.60;;;;;;;;;;6174878;23;20032;-48
2022/06/29 06:44:56;;;;;;;15.32;4.43;;;;;;;;;;6166296;23;20017;-48
2022/06/29 06:47:23;;;;;;;15.35;4.85;;;;;;;;;;6178739;23;20085;-45
2022/06/29 06:49:50;;;;;;;14.93;4.50;;;;;;;;;;6163557;23;20072;-45
2022/06/29 06:52:18;;;;;;;17.45;4.78;;;;;;;;;;6179113;23;20071;-46
2022/06/29 06:54:45;;;;;;;18.85;5.65;;;;;;;;;;6149386;23;20012;-47
2022/06/29 06:57:11;;;;;;;12.02;4.97;;;;;;;;;;6173165;23;20040;-46
2022/06/29 06:59:38;;;;;;;12.88;4.80;;;;;;;;;;6173025;23;20436;-46
2022/06/29 07:02:05;;;;;;;15.90;4.65;;;;;;;;;;6168760;23;20208;-48
2022/06/29 07:04:32;;;;;;;15.20;5.38;;;;;;;;;;6175934;23;20016;-47
2022/06/29 07:07:00;;;;;;;18.58;4.30;;;;;;;;;;6146447;23;20020;-48
2022/06/29 07:09:27;;;;;;;14.65;5.00;;;;;;;;;;6160499;23;20040;-46
2022/06/29 07:11:53;;;;;;;15.60;5.40;;;;;;;;;;6171900;23;20100;-45
2022/06/29 07:14:20;;;;;;;12.32;5.45;;;;;;;;;;6170165;23;20017;-48
2022/06/29 07:16:46;;;;;;;15.00;4.90;;;;;;;;;;6178615;23;20021;-45
2022/06/29 07:19:13;;;;;;;18.88;5.15;;;;;;;;;;6172844;23;20071;-46
2022/06/29 07:21:39;;;;;;;9.70;4.75;;;;;;;;;;6176956;23;20021;-45
2022/06/29 07:24:08;;;;;;;12.75;4.78;;;;;;;;;;6170477;23;20017;-46
2022/06/29 07:26:34;;;;;;;12.35;5.13;;;;;;;;;;6177466;23;20013;-46
2022/06/29 07:29:01;;;;;;;16.27;4.68;;;;;;;;;;6161918;23;20085;-46
2022/06/29 07:31:27;;;;;;;17.05;4.20;;;;;;;;;;6170485;23;20041;-48
2022/06/29 07:33:54;;;;;;;19.15;4.22;;;;;;;;;;6172645;23;20020;-50
2022/06/29 07:36:20;;;;;;;13.88;4.45;;;;;;;;;;6175009;23;20013;-47
2022/06/29 07:38:47;;;;;;;15.23;4.45;;;;;;;;;;6141479;23;20016;-47
2022/06/29 07:41:15;;;;;;;15.50;5.38;;;;;;;;;;6172835;23;20081;-45
2022/06/29 07:43:43;;;;;;;14.75;4.57;;;;;;;;;;6168967;23;20381;-46
2022/06/29 07:46:10;;;;;;;10.98;3.60;;;;;;;;;;6173467;23;20013;-48
2022/06/29 07:48:36;;;;;;;10.20;4.40;;;;;;;;;;6144302;23;20017;-46
2022/06/29 07:51:03;;;;;;;16.50;4.03;;;;;;;;;;6174473;23;20523;-47
2022/06/29 07:53:31;;;;;;;6.45;2.83;;;;;;;;;;6171086;23;20021;-46
2022/06/29 07:55:58;;;;;;;16.75;3.83;;;;;;;;;;6172864;23;20467;-48
2022/06/29 07:58:26;;;;;;;14.25;5.68;;;;;;;;;;6164922;23;20017;-46
2022/06/29 08:00:53;;;;;;;8.30;3.28;;;;;;;;;;6163840;23;20021;-53
2022/06/29 08:03:20;;;;;;;11.93;4.40;;;;;;;;;;6158166;23;20013;-48
2022/06/29 08:05:47;;;;;;;8.75;2.17;;;;;;;;;;6168705;23;20017;-47
2022/06/29 08:08:13;;;;;;;9.32;3.05;;;;;;;;;;6166381;23;20017;-47
2022/06/29 08:10:40;;;;;;;12.18;3.33;;;;;;;;;;6168713;23;20040;-49
2022/06/29 08:13:06;;;;;;;13.57;3.33;;;;;;;;;;6165311;23;20527;-48
2022/06/29 08:15:34;;;;;;;9.32;3.33;;;;;;;;;;6165079;23;20399;-47
2022/06/29 08:18:01;;;;;;;10.05;3.00;;;;;;;;;;6171819;23;20017;-47
2022/06/29 08:20:28;;;;;;;7.60;3.08;;;;;;;;;;6152826;23;20457;-46
2022/06/29 08:22:55;;;;;;;11.75;3.10;;;;;;;;;;6146648;23;20013;-46
2022/06/29 08:25:22;;;;;;;7.70;3.47;;;;;;;;;;6164969;23;20014;-47
2022/06/29 08:27:51;;;;;;;13.18;3.83;;;;;;;;;;6172004;23;20013;-47
2022/06/29 08:30:17;;;;;;;13.13;3.33;;;;;;;;;;6170229;23;20027;-46
2022/06/29 08:32:45;;;;;;;11.07;4.45;;;;;;;;;;6170158;23;20096;-45
2022/06/29 08:35:12;;;;;;;7.53;4.35;;;;;;;;;;6167541;23;20052;-48
2022/06/29 08:37:39;;;;;;;15.13;3.10;;;;;;;;;;6177741;23;20017;-47
2022/06/29 08:40:06;;;;;;;14.30;3.90;;;;;;;;;;6162994;23;20084;-47
2022/06/29 08:42:33;;;;;;;9.52;3.42;;;;;;;;;;6173742;23;20048;-47
2022/06/29 08:45:00;;;;;;;7.90;3.72;;;;;;;;;;6165565;23;20017;-48
2022/06/29 08:47:26;;;;;;;13.32;2.90;;;;;;;;;;6176199;23;20013;-46
2022/06/29 08:49:54;;;;;;;12.05;3.60;;;;;;;;;;6159915;23;20370;-46
2022/06/29 08:52:22;;;;;;;6.20;3.10;;;;;;;;;;6167855;23;20017;-45
2022/06/29 08:54:49;;;;;;;12.88;3.55;;;;;;;;;;6165840;23;20074;-46
2022/06/29 08:57:16;;;;;;;11.30;3.17;;;;;;;;;;6175728;23;20013;-45
2022/06/29 08:59:42;;;;;;;9.15;3.22;;;;;;;;;;6162960;23;20067;-46
2022/06/29 09:02:09;;;;;;;10.55;3.50;;;;;;;;;;6155253;23;20035;-48
2022/06/29 09:04:36;;;;;;;12.25;3.33;;;;;;;;;;6163578;23;20313;-46
2022/06/29 09:07:04;;;;;;;14.18;3.70;;;;;;;;;;6178458;23;20069;-47
2022/06/29 09:09:30;;;;;;;9.52;3.20;;;;;;;;;;6169880;23;20063;-48
2022/06/29 09:11:57;;;;;;;11.68;3.10;;;;;;;;;;6174742;23;20021;-49
2022/06/29 09:14:25;;;;;;;13.00;3.95;;;;;;;;;;6167283;23;20013;-47
2022/06/29 09:16:52;;;;;;;14.05;2.92;;;;;;;;;;6177921;23;20024;-47
2022/06/29 09:19:20;;;;;;;12.43;3.60;;;;;;;;;;6163414;23;20040;-45
2022/06/29 09:21:46;;;;;;;6.95;2.65;;;;;;;;;;6173820;23;20025;-46
2022/06/29 09:24:16;;;;;;;9.68;2.47;;;;;;;;;;6158920;23;20017;-46
2022/06/29 09:26:42;;;;;;;;;;;;;;;;;;6175762;23;20024;-45
2022/06/29 09:29:19;;;;;;;14.70;4.35;;;;;;;;;;6169283;23;19920;-48
2022/06/29 09:31:50;;;;;;;11.88;3.10;;;;;;;;;;6165084;23;20021;-48
2022/06/29 09:34:19;;;;;;;9.82;2.90;;;;;;;;;;6169532;23;20013;-46
2022/06/29 09:36:54;;;;;;;8.52;2.78;;;;;;;;;;6173253;23;20021;-46
2022/06/29 09:39:32;;;;;;;13.48;2.95;;;;;;;;;;6161068;23;20017;-46
2022/06/29 09:41:59;;;;;;;11.80;2.67;;;;;;;;;;6156622;23;20051;-45
2022/06/29 09:44:25;;;;;;;12.13;3.75;;;;;;;;;;6174509;23;20077;-46
2022/06/29 09:46:54;;;;;;;12.98;2.85;;;;;;;;;;6175435;23;20017;-50
2022/06/29 09:49:22;;;;;;;5.40;2.47;;;;;;;;;;6169475;23;20020;-47
2022/06/29 09:51:50;;;;;;;9.27;2.50;;;;;;;;;;6161831;23;20020;-47
2022/06/29 09:54:17;;;;;;;7.65;2.60;;;;;;;;;;6176053;23;20040;-48
2022/06/29 09:56:46;;;;;;;6.25;1.98;;;;;;;;;;6168791;23;20088;-45
2022/06/29 09:59:14;;;;;;;8.00;2.35;;;;;;;;;;6173703;23;20017;-47
2022/06/29 10:04:26;;;;;;;6.82;2.08;;;;;;;;;;6170668;23;20450;-46
2022/06/29 10:06:53;;;;;;;8.52;2.30;;;;;;;;;;6161119;23;20488;-46
2022/06/29 10:09:20;;;;;;;13.80;2.33;;;;;;;;;;6165204;23;20017;-46
2022/06/29 10:14:53;;;;;;;9.23;2.38;;;;;;;;;;6177096;23;20021;-49
2022/06/29 10:17:25;;;;;;;12.98;2.20;;;;;;;;;;6147501;23;20052;-47
2022/06/29 10:19:59;;;;;;;8.38;2.63;;;;;;;;;;6164851;23;20426;-47
2022/06/29 10:22:27;;;;;;;8.88;2.75;;;;;;;;;;6173083;23;20056;-48
2022/06/29 10:25:01;;;;;;;7.27;2.27;;;;;;;;;;6168453;23;20052;-48
2022/06/29 10:27:29;;;;;;;10.60;2.55;;;;;;;;;;6175452;23;20013;-49
2022/06/29 10:30:10;;;;;;;5.93;1.85;;;;;;;;;;6166320;23;20017;-47
2022/06/29 10:32:38;;;;;;;12.63;2.78;;;;;;;;;;6176361;23;20079;-48
2022/06/29 10:35:07;;;;;;;12.43;2.63;;;;;;;;;;6166616;23;20056;-50
2022/06/29 10:37:46;;;;;;;7.85;2.65;;;;;;;;;;6172884;23;20021;-47
2022/06/29 10:40:16;;;;;;;8.02;2.50;;;;;;;;;;6170143;23;20458;-50
2022/06/29 10:45:35;;;;;;;8.60;1.98;;;;;;;;;;6166513;23;20023;-46
2022/06/29 10:48:15;;;;;;;4.45;1.98;;;;;;;;;;6180670;23;20017;-48
2022/06/29 10:50:42;;;;;;;5.82;1.45;;;;;;;;;;6167267;23;20017;-46
2022/06/29 10:53:09;;;;;;;7.05;2.10;;;;;;;;;;6171916;23;20063;-47
2022/06/29 10:55:36;;;;;;;4.88;2.10;;;;;;;;;;6172925;23;20047;-46
2022/06/29 10:58:05;;;;;;;6.07;2.08;;;;;;;;;;6158270;23;20013;-49
2022/06/29 11:00:32;;;;;;;8.40;2.45;;;;;;;;;;6176366;23;20021;-47
2022/06/29 11:03:06;;;;;;;25.92;2.72;;;;;;;;;;6140409;23;20025;-49
2022/06/29 11:05:34;;;;;;;4.75;2.17;;;;;;;;;;6166216;23;20044;-46
2022/06/29 11:13:31;;;;;;;6.15;2.22;;;;;;;;;;6172604;23;20269;-47
2022/06/29 11:15:59;;;;;;;2.90;1.80;;;;;;;;;;6171698;23;20013;-47
2022/06/29 11:18:27;;;;;;;5.15;2.15;;;;;;;;;;6178099;23;20017;-48
2022/06/29 11:20:54;;;;;;;7.53;2.35;;;;;;;;;;6156089;23;20017;-47
2022/06/29 11:23:24;;;;;;;5.65;2.03;;;;;;;;;;6176380;23;20086;-47
2022/06/29 11:25:54;;;;;;;6.60;2.08;;;;;;;;;;6165640;23;20013;-46
2022/06/29 11:28:23;;;;;;;11.52;1.88;;;;;;;;;;6168524;23;20056;-49
2022/06/29 11:31:01;;;;;;;7.80;2.20;;;;;;;;;;6165874;23;20028;-47
2022/06/29 11:33:28;;;;;;;4.95;2.03;;;;;;;;;;6173709;23;20518;-44
2022/06/29 11:35:55;;;;;;;5.78;1.90;;;;;;;;;;6172898;23;20743;-49
2022/06/29 11:38:26;;;;;;;7.07;1.90;;;;;;;;;;6168300;23;20013;-47
2022/06/29 11:40:54;;;;;;;5.75;1.80;;;;;;;;;;6165057;23;20333;-47
2022/06/29 11:43:21;;;;;;;5.88;2.65;;;;;;;;;;6167694;23;20021;-48
2022/06/29 11:45:47;;;;;;;5.35;1.70;;;;;;;;;;6161901;23;20021;-48
2022/06/29 11:48:16;;;;;;;4.25;2.28;;;;;;;;;;6177113;23;20016;-46
2022/06/29 11:50:43;;;;;;;10.70;2.00;;;;;;;;;;6168040;23;20017;-46
2022/06/29 11:53:10;;;;;;;7.40;2.00;;;;;;;;;;6177087;23;20020;-47
2022/06/29 11:55:40;;;;;;;7.05;1.70;;;;;;;;;;6170973;23;20640;-48
2022/06/29 11:58:09;;;;;;;5.18;1.60;;;;;;;;;;6172592;23;20029;-45
2022/06/29 12:00:37;;;;;;;5.72;1.50;;;;;;;;;;6168032;23;20021;-45
2022/06/29 12:03:04;;;;;;;5.93;1.33;;;;;;;;;;6174111;23;20109;-48
2022/06/29 12:05:32;;;;;;;6.30;1.20;;;;;;;;;;6134089;23;20013;-49
2022/06/29 12:07:58;;;;;;;6.00;1.08;;;;;;;;;;6164235;23;20019;-46
2022/06/29 12:10:25;;;;;;;4.95;1.42;;;;;;;;;;6163919;23;20017;-47
2022/06/29 12:12:51;;;;;;;4.68;1.20;;;;;;;;;;6173228;23;20629;-45
2022/06/29 12:15:18;;;;;;;5.22;1.33;;;;;;;;;;6175694;23;20020;-47
2022/06/29 12:17:45;;;;;;;5.60;1.58;;;;;;;;;;6170651;23;20218;-45
2022/06/29 12:20:12;;;;;;;6.25;2.88;;;;;;;;;;6176735;23;20013;-46
2022/06/29 12:22:40;;;;;;;4.15;1.10;;;;;;;;;;6170749;23;20021;-46
2022/06/29 12:25:07;;;;;;;7.88;1.50;;;;;;;;;;6174214;23;20364;-46
2022/06/29 12:27:36;;;;;;;6.78;1.40;;;;;;;;;;6167292;23;20024;-50
2022/06/29 12:30:02;;;;;;;;;;;;;;;;;;6173981;23;20080;-46
2022/06/29 12:32:30;;;;;;;5.43;1.58;;;;;;;;;;6178078;23;19920;-47
2022/06/29 12:34:57;;;;;;;5.07;1.55;;;;;;;;;;6170387;23;20067;-49
2022/06/29 12:37:24;;;;;;;5.03;1.65;;;;;;;;;;6174132;23;20224;-47
2022/06/29 12:39:53;;;;;;;6.70;1.98;;;;;;;;;;6166815;23;20021;-48
2022/06/29 12:42:21;;;;;;;11.23;2.58;;;;;;;;;;6175755;23;20073;-49
2022/06/29 12:44:47;;;;;;;4.28;1.58;;;;;;;;;;6166471;23;20017;-46
2022/06/29 12:47:14;;;;;;;6.88;1.70;;;;;;;;;;6177213;23;20762;-47
2022/06/29 12:49:41;;;;;;;5.43;1.30;;;;;;;;;;6165902;23;20017;-46
2022/06/29 12:52:07;;;;;;;7.65;2.33;;;;;;;;;;6170343;23;20028;-48
2022/06/29 12:54:34;;;;;;;5.05;1.67;;;;;;;;;;6167180;23;20021;-46
2022/06/29 12:57:01;;;;;;;10.38;1.73;;;;;;;;;;6176953;23;20013;-47
2022/06/29 12:59:28;;;;;;;8.30;1.95;;;;;;;;;;6174828;23;20013;-44
2022/06/29 13:01:55;;;;;;;2.85;1.48;;;;;;;;;;6175911;23;20013;-46
2022/06/29 13:04:22;;;;;;;10.25;1.80;;;;;;;;;;6175077;23;20017;-47
2022/06/29 13:06:48;;;;;;;6.47;1.45;;;;;;;;;;6168473;23;20037;-48
2022/06/29 13:09:15;;;;;;;4.68;1.60;;;;;;;;;;6174785;23;20064;-47
2022/06/29 13:11:41;;;;;;;6.25;2.05;;;;;;;;;;6164471;23;20296;-46
2022/06/29 13:14:09;;;;;;;5.93;1.10;;;;;;;;;;6176254;23;20040;-45
2022/06/29 13:16:36;;;;;;;7.00;1.35;;;;;;;;;;6167049;23;20076;-45
2022/06/29 13:19:02;;;;;;;13.48;2.20;;;;;;;;;;6178792;23;20064;-45
2022/06/29 13:21:30;;;;;;;7.18;1.85;;;;;;;;;;6166953;23;20013;-47
2022/06/29 13:23:57;;;;;;;8.50;2.55;;;;;;;;;;6179579;23;20025;-45
2022/06/29 13:26:23;;;;;;;5.32;1.40;;;;;;;;;;6165508;23;20017;-47
2022/06/29 13:28:50;;;;;;;8.48;2.58;;;;;;;;;;6176932;23;20020;-47
2022/06/29 13:31:18;;;;;;;6.60;2.58;;;;;;;;;;6165673;23;20020;-48
2022/06/29 13:33:45;;;;;;;5.40;1.90;;;;;;;;;;6173863;23;20013;-47
2022/06/29 13:36:12;;;;;;;5.60;1.60;;;;;;;;;;6165524;23;20041;-46
2022/06/29 13:38:39;;;;;;;8.07;1.77;;;;;;;;;;6176579;23;20020;-47
2022/06/29 13:41:05;;;;;;;2.30;0.70;;;;;;;;;;6171693;23;20013;-46
2022/06/29 13:43:32;;;;;;;2.42;0.65;;;;;;;;;;6174980;23;20021;-47
2022/06/29 13:45:58;;;;;;;1.50;0.50;;;;;;;;;;6169378;23;20511;-46
2022/06/29 13:48:26;;;;;;;4.72;1.02;;;;;;;;;;6175168;23;20048;-46
2022/06/29 13:50:53;;;;;;;2.65;0.60;;;;;;;;;;6164132;23;20025;-47
2022/06/29 13:53:19;;;;;;;2.42;0.80;;;;;;;;;;6169945;23;20080;-46
2022/06/29 13:55:46;;;;;;;2.60;1.50;;;;;;;;;;6174337;23;20020;-48
2022/06/29 13:58:12;;;;;;;3.47;0.90;;;;;;;;;;6171518;23;20017;-50
2022/06/29 14:00:39;;;;;;;2.83;0.90;;;;;;;;;;6174788;23;20017;-45
2022/06/29 14:03:06;;;;;;;3.55;0.75;;;;;;;;;;6168496;23;20514;-47
2022/06/29 14:05:34;;;;;;;1.45;0.68;;;;;;;;;;6170327;23;20017;-48
2022/06/29 14:08:01;;;;;;;2.28;0.75;;;;;;;;;;6175203;23;20017;-45
2022/06/29 14:10:27;;;;;;;3.47;0.73;;;;;;;;;;6171151;23;20472;-45
2022/06/29 14:12:54;;;;;;;2.92;0.77;;;;;;;;;;6169319;23;20021;-48
2022/06/29 14:15:21;;;;;;;2.08;0.75;;;;;;;;;;6174189;23;20043;-47
2022/06/29 14:17:47;;;;;;;3.72;0.93;;;;;;;;;;6174710;23;20226;-46
2022/06/29 14:20:14;;;;;;;3.35;0.90;;;;;;;;;;6160743;23;20040;-47
2022/06/29 14:22:42;;;;;;;2.80;0.80;;;;;;;;;;6141490;23;20024;-48
2022/06/29 14:25:09;;;;;;;4.22;0.93;;;;;;;;;;6171049;23;20029;-47
2022/06/29 14:27:36;;;;;;;1.98;0.65;;;;;;;;;;6165754;23;20355;-48
2022/06/29 14:30:03;;;;;;;3.30;0.80;;;;;;;;;;6176484;23;20017;-45
2022/06/29 14:32:30;;;;;;;4.93;1.10;;;;;;;;;;6178624;23;20092;-47
2022/06/29 14:34:57;;;;;;;4.93;1.25;;;;;;;;;;6169402;23;20013;-46
2022/06/29 14:37:24;;;;;;;4.88;1.25;;;;;;;;;;6173539;23;20523;-47
2022/06/29 14:39:51;;;;;;;3.83;1.08;;;;;;;;;;6176436;23;20522;-45
2022/06/29 14:42:19;;;;;;;3.58;0.95;;;;;;;;;;6168958;23;20017;-46
2022/06/29 14:44:45;;;;;;;0.70;0.63;;;;;;;;;;6123943;23;20047;-46
2022/06/29 14:47:12;;;;;;;4.72;1.20;;;;;;;;;;6169069;23;20017;-46
2022/06/29 14:49:38;;;;;;;8.13;1.50;;;;;;;;;;6168218;23;20052;-48
2022/06/29 14:52:05;;;;;;;6.68;1.65;;;;;;;;;;6171043;23;20017;-47
2022/06/29 14:54:32;;;;;;;4.55;1.45;;;;;;;;;;6169599;23;20009;-45